Guymon Municipal Airport Guymon US
ICAO: KGUY
IATA: GUY
Category: Medium
Scheduled Services: No

Elevation: 3123 ft
TransAlt. 18000 ft.

Airport Communications:
ASOS:119.925
KANSAS CITY CNTR:134
CTAF/UNICOM:122.7

KGUY Zoom In..

Runways:

(A) RW 18 length 5904 ft width 100 ft
---- / hdg 177

(B) RW 36 length 5904 ft width 100 ft
---- / hdg 357

Location; KGUY
Day. 24 / Time. 01.53 Zulu
* Altimeter: 30.32
* Temperature: 01° c. 33.8°f.
* Wind from: 360° Speed 06 kn.
Dewpoint: -10° c.
Visibility: 10 Statute Miles.
Clouds: Clear (automated report).

KGUY 240153Z AUTO 36006KT 10SM CLR 01/M10 A3032 RMK AO2 SLP287 T00111100


Wind From 360°
Speed 06 kn.

YouTube Music Video
 
jpsmedia.com for Web Design  worldairports.se 2018   terms of use